Time;durP1;ratioP1;P1;durP2;ratioP2;P2;SDS_P1;SDS_P2;PMS_P1;PMS_P2;Temp;Humidity;BMP_temperature;BMP_pressure;BME280_temperature;BME280_humidity;BME280_pressure;Samples;Min_cycle;Max_cycle;Signal;HPM_P1;HPM_P2
2023/03/14 00:00:33;;;;;;;38.38;7.50;;;;;;;;;;4910620;29;20582;-65
2023/03/14 00:02:59;;;;;;;26.13;5.90;;;;;;;;;;4931905;28;20517;-66
2023/03/14 00:05:25;;;;;;;31.55;6.55;;;;;;;;;;4936612;28;20098;-66
2023/03/14 00:07:51;;;;;;;36.35;5.93;;;;;;;;;;4937491;28;20039;-66
2023/03/14 00:10:17;;;;;;;33.22;6.80;;;;;;;;;;4938717;28;20059;-66
2023/03/14 00:12:44;;;;;;;27.38;5.38;;;;;;;;;;4936995;28;20043;-66
2023/03/14 00:15:10;;;;;;;33.50;5.18;;;;;;;;;;4938496;28;20308;-65
2023/03/14 00:17:37;;;;;;;23.08;5.32;;;;;;;;;;4938750;28;20498;-65
2023/03/14 00:20:07;;;;;;;33.67;5.47;;;;;;;;;;4938114;28;20047;-66
2023/03/14 00:22:35;;;;;;;28.85;5.10;;;;;;;;;;4939187;28;20106;-66
2023/03/14 00:25:02;;;;;;;24.58;4.75;;;;;;;;;;4939940;28;20042;-66
2023/03/14 00:27:28;;;;;;;26.73;4.47;;;;;;;;;;4943621;28;20078;-65
2023/03/14 00:29:54;;;;;;;23.00;4.68;;;;;;;;;;4943983;28;20039;-66
2023/03/14 00:32:20;;;;;;;24.80;5.97;;;;;;;;;;4924449;29;20062;-66
2023/03/14 00:34:47;;;;;;;28.80;5.57;;;;;;;;;;4925339;28;20527;-66
2023/03/14 00:37:13;;;;;;;33.35;5.47;;;;;;;;;;4942679;28;20422;-65
2023/03/14 00:39:39;;;;;;;29.63;5.38;;;;;;;;;;4941505;28;20134;-66
2023/03/14 00:42:05;;;;;;;23.45;4.88;;;;;;;;;;4942545;28;20047;-65
2023/03/14 00:44:32;;;;;;;33.30;5.47;;;;;;;;;;4941013;28;20138;-65
2023/03/14 00:46:58;;;;;;;32.80;5.47;;;;;;;;;;4941828;28;20094;-65
2023/03/14 00:49:25;;;;;;;27.90;5.65;;;;;;;;;;4942675;28;20054;-65
2023/03/14 00:51:51;;;;;;;26.80;5.03;;;;;;;;;;4908619;29;20122;-66
2023/03/14 00:54:18;;;;;;;29.33;4.55;;;;;;;;;;4941511;28;20035;-66
2023/03/14 00:56:44;;;;;;;32.47;5.03;;;;;;;;;;4941371;28;20376;-66
2023/03/14 00:59:10;;;;;;;26.10;4.95;;;;;;;;;;4940379;28;20790;-66
2023/03/14 01:01:36;;;;;;;33.90;5.05;;;;;;;;;;4942463;28;20401;-66
2023/03/14 01:04:03;;;;;;;33.03;4.93;;;;;;;;;;4942167;28;20075;-66
2023/03/14 01:06:29;;;;;;;30.98;6.25;;;;;;;;;;4924728;28;20059;-65
2023/03/14 01:08:56;;;;;;;26.38;4.18;;;;;;;;;;4942271;28;20051;-65
2023/03/14 01:11:24;;;;;;;30.65;5.75;;;;;;;;;;4942351;28;20084;-65
2023/03/14 01:13:50;;;;;;;27.52;5.07;;;;;;;;;;4942826;28;20047;-65
2023/03/14 01:16:17;;;;;;;18.45;4.05;;;;;;;;;;4941991;28;20051;-66
2023/03/14 01:18:44;;;;;;;28.25;5.25;;;;;;;;;;4924282;28;20067;-66
2023/03/14 01:21:13;;;;;;;27.90;5.35;;;;;;;;;;4941575;28;20039;-65
2023/03/14 01:23:39;;;;;;;23.27;4.97;;;;;;;;;;4943091;28;20380;-66
2023/03/14 01:26:09;;;;;;;29.02;4.57;;;;;;;;;;4925401;28;20530;-66
2023/03/14 01:28:35;;;;;;;19.48;4.20;;;;;;;;;;4922208;28;20051;-65
2023/03/14 01:31:03;;;;;;;22.35;3.97;;;;;;;;;;4923486;28;20078;-66
2023/03/14 01:33:29;;;;;;;22.05;4.55;;;;;;;;;;4925220;28;20062;-65
2023/03/14 01:35:56;;;;;;;23.27;4.20;;;;;;;;;;4922747;28;20065;-66
2023/03/14 01:38:23;;;;;;;19.20;3.55;;;;;;;;;;4941151;28;20628;-66
2023/03/14 01:40:49;;;;;;;26.98;4.75;;;;;;;;;;4928992;29;20143;-66
2023/03/14 01:43:16;;;;;;;28.13;4.53;;;;;;;;;;4929169;29;20057;-66
2023/03/14 01:46:01;;;;;;;21.67;3.47;;;;;;;;;;4947957;28;20062;-66
2023/03/14 01:48:29;;;;;;;23.75;3.33;;;;;;;;;;4945885;28;20043;-66
2023/03/14 01:50:55;;;;;;;24.75;4.47;;;;;;;;;;4940716;28;20410;-65
2023/03/14 01:53:21;;;;;;;27.23;4.85;;;;;;;;;;4941059;28;20047;-65
2023/03/14 01:55:48;;;;;;;33.03;5.68;;;;;;;;;;4941379;28;20040;-66
2023/03/14 01:58:16;;;;;;;32.47;5.43;;;;;;;;;;4938774;28;20043;-66
2023/03/14 02:00:42;;;;;;;21.38;5.07;;;;;;;;;;4923673;28;20047;-66
2023/03/14 02:03:14;;;;;;;22.45;3.70;;;;;;;;;;4941581;28;20089;-65
2023/03/14 02:05:42;;;;;;;26.92;4.40;;;;;;;;;;4940356;28;20126;-66
2023/03/14 02:08:10;;;;;;;26.45;4.47;;;;;;;;;;4941436;28;20143;-65
2023/03/14 02:10:38;;;;;;;28.20;4.43;;;;;;;;;;4939543;28;20086;-66
2023/03/14 02:13:05;;;;;;;27.23;4.20;;;;;;;;;;4938741;28;20043;-66
2023/03/14 02:15:31;;;;;;;25.23;3.70;;;;;;;;;;4941894;28;20051;-66
2023/03/14 02:17:58;;;;;;;28.50;4.75;;;;;;;;;;4941634;28;20097;-66
2023/03/14 02:20:24;;;;;;;24.58;3.88;;;;;;;;;;4940610;28;20131;-65
2023/03/14 02:22:51;;;;;;;18.77;3.55;;;;;;;;;;4921276;28;20055;-65
2023/03/14 02:25:26;;;;;;;24.20;4.72;;;;;;;;;;4936847;28;20161;-65
2023/03/14 02:27:53;;;;;;;23.05;4.10;;;;;;;;;;4939486;28;20047;-65
2023/03/14 02:30:21;;;;;;;31.90;4.70;;;;;;;;;;4942818;28;20066;-65
2023/03/14 02:32:49;;;;;;;23.05;3.75;;;;;;;;;;4942947;28;20047;-65
2023/03/14 02:35:17;;;;;;;27.05;5.47;;;;;;;;;;4942631;28;20051;-67
2023/03/14 02:37:47;;;;;;;18.38;3.72;;;;;;;;;;4943211;28;20388;-64
2023/03/14 02:40:14;;;;;;;24.00;3.90;;;;;;;;;;4940698;28;20571;-65
2023/03/14 02:42:40;;;;;;;25.98;5.13;;;;;;;;;;4941380;28;20129;-66
2023/03/14 02:45:09;;;;;;;23.25;4.57;;;;;;;;;;4943456;28;20423;-66
2023/03/14 02:47:37;;;;;;;27.40;4.88;;;;;;;;;;4940867;28;20134;-66
2023/03/14 02:50:05;;;;;;;28.90;4.32;;;;;;;;;;4943158;28;20479;-66
2023/03/14 02:52:32;;;;;;;24.40;4.13;;;;;;;;;;4924478;29;20570;-66
2023/03/14 02:54:58;;;;;;;23.85;4.45;;;;;;;;;;4941749;28;20050;-66
2023/03/14 02:57:24;;;;;;;23.30;3.72;;;;;;;;;;4925294;29;20051;-65
2023/03/14 02:59:50;;;;;;;22.92;4.95;;;;;;;;;;4924850;29;20051;-66
2023/03/14 03:02:16;;;;;;;29.33;4.45;;;;;;;;;;4942406;28;20261;-66
2023/03/14 03:04:43;;;;;;;26.67;4.50;;;;;;;;;;4942799;28;20043;-66
2023/03/14 03:07:09;;;;;;;24.88;5.13;;;;;;;;;;4941718;28;20047;-66
2023/03/14 03:09:35;;;;;;;27.70;5.25;;;;;;;;;;4942427;28;20047;-66
2023/03/14 03:12:01;;;;;;;33.38;5.47;;;;;;;;;;4943592;28;20047;-67
2023/03/14 03:14:27;;;;;;;33.50;5.57;;;;;;;;;;4942516;28;20051;-66
2023/03/14 03:16:53;;;;;;;38.55;6.20;;;;;;;;;;4944504;28;20039;-66
2023/03/14 03:19:20;;;;;;;37.55;5.68;;;;;;;;;;4922132;29;20110;-66
2023/03/14 03:21:46;;;;;;;40.70;6.72;;;;;;;;;;4942856;28;20062;-66
2023/03/14 03:24:13;;;;;;;36.47;5.22;;;;;;;;;;4926091;28;21591;-66
2023/03/14 03:26:39;;;;;;;33.22;5.40;;;;;;;;;;4943385;28;20133;-66
2023/03/14 03:29:05;;;;;;;39.17;6.53;;;;;;;;;;4923847;28;20039;-66
2023/03/14 03:31:31;;;;;;;43.83;5.93;;;;;;;;;;4939408;28;20051;-65
2023/03/14 03:33:57;;;;;;;39.63;7.32;;;;;;;;;;4939446;28;20051;-66
2023/03/14 03:36:24;;;;;;;41.85;5.95;;;;;;;;;;4938932;28;20079;-66
2023/03/14 03:38:51;;;;;;;42.58;5.85;;;;;;;;;;4938156;28;20047;-66
2023/03/14 03:41:17;;;;;;;43.85;6.15;;;;;;;;;;4939993;28;20039;-66
2023/03/14 03:43:43;;;;;;;41.42;7.60;;;;;;;;;;4937684;28;20126;-66
2023/03/14 03:46:10;;;;;;;40.30;6.47;;;;;;;;;;4942933;28;20039;-65
2023/03/14 03:48:36;;;;;;;47.25;6.68;;;;;;;;;;4941752;28;20051;-65
2023/03/14 03:51:02;;;;;;;42.65;7.15;;;;;;;;;;4938589;28;20047;-65
2023/03/14 03:53:28;;;;;;;45.63;7.95;;;;;;;;;;4938591;28;20406;-65
2023/03/14 03:55:54;;;;;;;34.92;5.82;;;;;;;;;;4938218;28;20035;-65
2023/03/14 03:58:21;;;;;;;41.35;5.60;;;;;;;;;;4920825;28;20395;-65
2023/03/14 04:00:47;;;;;;;49.45;7.85;;;;;;;;;;4940522;28;20075;-65
2023/03/14 04:03:13;;;;;;;47.40;6.22;;;;;;;;;;4937548;28;20487;-65
2023/03/14 04:05:39;;;;;;;40.55;6.78;;;;;;;;;;4939617;28;20050;-65
2023/03/14 04:08:05;;;;;;;53.03;7.50;;;;;;;;;;4940525;28;20092;-65
2023/03/14 04:10:34;;;;;;;42.30;7.80;;;;;;;;;;4939768;28;20130;-65
2023/03/14 04:13:00;;;;;;;48.65;7.78;;;;;;;;;;4939046;28;20051;-65
2023/03/14 04:15:26;;;;;;;43.50;7.07;;;;;;;;;;4943463;28;20102;-66
2023/03/14 04:17:56;;;;;;;39.40;6.90;;;;;;;;;;4938115;28;20043;-65
2023/03/14 04:20:22;;;;;;;35.05;6.72;;;;;;;;;;4920034;29;20164;-65
2023/03/14 04:22:49;;;;;;;49.15;9.02;;;;;;;;;;4938791;28;20044;-65
2023/03/14 04:25:17;;;;;;;44.10;7.00;;;;;;;;;;4938832;28;20703;-65
2023/03/14 04:27:43;;;;;;;41.83;6.53;;;;;;;;;;4937751;28;20059;-65
2023/03/14 04:30:09;;;;;;;38.67;5.72;;;;;;;;;;4938517;28;20491;-65
2023/03/14 04:32:36;;;;;;;44.08;7.40;;;;;;;;;;4919001;28;20167;-65
2023/03/14 04:35:03;;;;;;;40.35;7.55;;;;;;;;;;4937859;28;20491;-65
2023/03/14 04:37:29;;;;;;;36.55;6.30;;;;;;;;;;4941253;28;20130;-65
2023/03/14 04:39:55;;;;;;;46.58;6.57;;;;;;;;;;4943633;28;20177;-65
2023/03/14 04:42:21;;;;;;;36.35;6.60;;;;;;;;;;4945624;28;20066;-65
2023/03/14 04:44:49;;;;;;;47.40;8.55;;;;;;;;;;4940807;28;20427;-65
2023/03/14 04:47:15;;;;;;;55.83;8.85;;;;;;;;;;4918581;28;20484;-65
2023/03/14 04:49:41;;;;;;;36.75;8.00;;;;;;;;;;4937466;28;20047;-65
2023/03/14 04:52:07;;;;;;;45.70;9.90;;;;;;;;;;4919615;29;20119;-66
2023/03/14 04:54:33;;;;;;;34.80;7.60;;;;;;;;;;4919181;29;20059;-64
2023/03/14 04:56:59;;;;;;;40.67;8.43;;;;;;;;;;4919000;29;20111;-63
2023/03/14 04:59:26;;;;;;;38.85;8.70;;;;;;;;;;4901357;29;20107;-64
2023/03/14 05:01:52;;;;;;;35.33;8.85;;;;;;;;;;4919133;29;20047;-65
2023/03/14 05:04:18;;;;;;;30.77;8.70;;;;;;;;;;4922034;29;20075;-65
2023/03/14 05:06:44;;;;;;;34.15;8.52;;;;;;;;;;4920231;29;20068;-64
2023/03/14 05:09:10;;;;;;;34.22;9.60;;;;;;;;;;4902227;29;20052;-64
2023/03/14 05:11:36;;;;;;;33.15;8.82;;;;;;;;;;4920970;29;20039;-64
2023/03/14 05:14:02;;;;;;;22.13;8.77;;;;;;;;;;4905117;29;20138;-65
2023/03/14 05:16:28;;;;;;;30.60;9.55;;;;;;;;;;4924045;29;20097;-65
2023/03/14 05:18:55;;;;;;;27.55;8.88;;;;;;;;;;4925189;29;20058;-65
2023/03/14 05:21:21;;;;;;;29.02;10.13;;;;;;;;;;4922842;29;20052;-65
2023/03/14 05:23:47;;;;;;;32.42;10.05;;;;;;;;;;4906753;29;20968;-65
2023/03/14 05:26:13;;;;;;;22.63;8.88;;;;;;;;;;4923196;29;20075;-65
2023/03/14 05:28:39;;;;;;;24.13;8.05;;;;;;;;;;4904996;29;20048;-65
2023/03/14 05:31:07;;;;;;;25.80;8.15;;;;;;;;;;4922149;29;20296;-65
2023/03/14 05:33:40;;;;;;;18.17;5.18;;;;;;;;;;4904690;29;20451;-65
2023/03/14 05:36:07;;;;;;;15.82;4.55;;;;;;;;;;4921744;29;20073;-65
2023/03/14 05:38:33;;;;;;;14.27;4.88;;;;;;;;;;4905233;29;21982;-66
2023/03/14 05:40:59;;;;;;;16.92;4.10;;;;;;;;;;4905240;29;20052;-66
2023/03/14 05:43:25;;;;;;;12.88;3.05;;;;;;;;;;4922565;29;20051;-66
2023/03/14 05:45:51;;;;;;;16.92;3.22;;;;;;;;;;4924570;29;20051;-67
2023/03/14 05:48:18;;;;;;;12.55;3.47;;;;;;;;;;4924147;29;20062;-67
2023/03/14 05:50:44;;;;;;;17.75;2.83;;;;;;;;;;4924792;29;20063;-67
2023/03/14 05:53:10;;;;;;;18.08;3.25;;;;;;;;;;4916807;29;20054;-67
2023/03/14 05:55:36;;;;;;;13.38;2.17;;;;;;;;;;4920806;29;20047;-68
2023/03/14 05:58:02;;;;;;;17.95;2.30;;;;;;;;;;4922426;29;20069;-67
2023/03/14 06:00:28;;;;;;;20.77;2.75;;;;;;;;;;4923238;29;20411;-67
2023/03/14 06:02:54;;;;;;;17.35;3.30;;;;;;;;;;4905535;29;20082;-66
2023/03/14 06:05:21;;;;;;;18.73;3.03;;;;;;;;;;4912403;29;20067;-68
2023/03/14 06:07:47;;;;;;;21.73;3.10;;;;;;;;;;4927077;29;20120;-65
2023/03/14 06:10:13;;;;;;;26.38;2.58;;;;;;;;;;4910766;29;20051;-66
2023/03/14 06:12:39;;;;;;;25.77;2.70;;;;;;;;;;4924780;29;20044;-66
2023/03/14 06:15:06;;;;;;;21.77;3.40;;;;;;;;;;4904764;29;20618;-65
2023/03/14 06:17:32;;;;;;;18.63;2.60;;;;;;;;;;4921857;29;20050;-66
2023/03/14 06:19:58;;;;;;;21.83;3.05;;;;;;;;;;4926833;29;20050;-67
2023/03/14 06:22:24;;;;;;;25.33;4.07;;;;;;;;;;4925354;29;20048;-66
2023/03/14 06:24:50;;;;;;;19.33;2.55;;;;;;;;;;4928973;29;20047;-66
2023/03/14 06:27:16;;;;;;;21.35;3.20;;;;;;;;;;4929242;29;20072;-66
2023/03/14 06:29:42;;;;;;;13.30;1.60;;;;;;;;;;4929565;29;20048;-66
2023/03/14 06:32:09;;;;;;;15.40;1.95;;;;;;;;;;4927873;29;20047;-67
2023/03/14 06:34:35;;;;;;;13.98;1.70;;;;;;;;;;4911636;29;20480;-67
2023/03/14 06:37:01;;;;;;;16.17;1.70;;;;;;;;;;4927946;29;20511;-66
2023/03/14 06:39:27;;;;;;;13.82;2.90;;;;;;;;;;4927830;29;20487;-66
2023/03/14 06:41:53;;;;;;;15.90;1.80;;;;;;;;;;4927403;29;20407;-67
2023/03/14 06:44:19;;;;;;;15.35;1.38;;;;;;;;;;4912140;29;20047;-67
2023/03/14 06:46:46;;;;;;;9.85;2.33;;;;;;;;;;4925528;29;20052;-67
2023/03/14 06:49:12;;;;;;;6.45;1.17;;;;;;;;;;4921615;29;20391;-67
2023/03/14 06:51:38;;;;;;;7.55;1.13;;;;;;;;;;4922725;29;20071;-67
2023/03/14 06:54:04;;;;;;;9.65;0.77;;;;;;;;;;4907951;29;20087;-67
2023/03/14 06:56:30;;;;;;;7.70;1.20;;;;;;;;;;4926722;29;20048;-67
2023/03/14 06:58:56;;;;;;;12.60;1.48;;;;;;;;;;4926652;29;20047;-68
2023/03/14 07:01:25;;;;;;;10.55;1.63;;;;;;;;;;4923870;29;20039;-74
2023/03/14 07:03:51;;;;;;;10.68;0.88;;;;;;;;;;4907428;29;20055;-67
2023/03/14 07:06:18;;;;;;;13.07;1.73;;;;;;;;;;4920824;29;20044;-66
2023/03/14 07:08:44;;;;;;;10.95;1.90;;;;;;;;;;4924079;29;20062;-66
2023/03/14 07:11:11;;;;;;;9.57;1.27;;;;;;;;;;4910595;29;20179;-66
2023/03/14 07:13:38;;;;;;;14.82;1.75;;;;;;;;;;4926859;29;20055;-66
2023/03/14 07:16:04;;;;;;;10.05;1.48;;;;;;;;;;4929354;29;20471;-67
2023/03/14 07:18:30;;;;;;;6.55;1.42;;;;;;;;;;4931175;29;20047;-67
2023/03/14 07:20:56;;;;;;;6.00;1.20;;;;;;;;;;4930088;29;20040;-67
2023/03/14 07:23:23;;;;;;;8.82;1.58;;;;;;;;;;4931062;29;20385;-67
2023/03/14 07:25:50;;;;;;;6.30;0.90;;;;;;;;;;4930852;29;20525;-67
2023/03/14 07:28:16;;;;;;;8.27;1.30;;;;;;;;;;4931395;29;20050;-67
2023/03/14 07:30:43;;;;;;;13.82;1.67;;;;;;;;;;4914274;29;20047;-67
2023/03/14 07:33:09;;;;;;;18.60;2.72;;;;;;;;;;4930758;29;20080;-67
2023/03/14 07:35:35;;;;;;;13.95;1.58;;;;;;;;;;4929843;29;20100;-67
2023/03/14 07:38:01;;;;;;;12.38;1.60;;;;;;;;;;4930763;29;20048;-68
2023/03/14 07:40:27;;;;;;;9.00;1.60;;;;;;;;;;4931271;29;20360;-68
2023/03/14 07:42:55;;;;;;;12.18;1.52;;;;;;;;;;4930890;29;20510;-67
2023/03/14 07:45:21;;;;;;;11.40;1.70;;;;;;;;;;4930624;29;20044;-67
2023/03/14 07:47:47;;;;;;;15.10;1.80;;;;;;;;;;4930691;29;20129;-68
2023/03/14 07:50:13;;;;;;;7.93;1.63;;;;;;;;;;4929541;29;20055;-68
2023/03/14 07:52:39;;;;;;;9.23;1.73;;;;;;;;;;4931010;29;20566;-68
2023/03/14 07:55:06;;;;;;;10.73;1.67;;;;;;;;;;4930937;29;20035;-67
2023/03/14 07:57:32;;;;;;;8.80;1.67;;;;;;;;;;4930864;29;20048;-67
2023/03/14 07:59:58;;;;;;;15.52;2.25;;;;;;;;;;4930538;29;20056;-68
2023/03/14 08:02:24;;;;;;;13.25;1.67;;;;;;;;;;4929502;29;20460;-67
2023/03/14 08:04:51;;;;;;;15.07;1.85;;;;;;;;;;4930446;29;20051;-67
2023/03/14 08:07:17;;;;;;;10.25;1.90;;;;;;;;;;4930298;29;20043;-68
2023/03/14 08:09:43;;;;;;;13.10;2.20;;;;;;;;;;4913601;29;20484;-67
2023/03/14 08:12:09;;;;;;;15.23;2.53;;;;;;;;;;4930722;29;20040;-68
2023/03/14 08:14:35;;;;;;;19.35;2.35;;;;;;;;;;4930253;29;20452;-67
2023/03/14 08:17:01;;;;;;;14.68;2.53;;;;;;;;;;4912674;29;20436;-67
2023/03/14 08:19:28;;;;;;;16.13;3.15;;;;;;;;;;4930217;29;20043;-67
2023/03/14 08:21:54;;;;;;;19.38;2.83;;;;;;;;;;4930560;29;20040;-68
2023/03/14 08:24:20;;;;;;;19.13;4.07;;;;;;;;;;4930201;29;20613;-68
2023/03/14 08:26:46;;;;;;;16.80;2.67;;;;;;;;;;4930562;29;20106;-68
2023/03/14 08:29:12;;;;;;;18.55;3.08;;;;;;;;;;4930212;29;20044;-68
2023/03/14 08:31:38;;;;;;;23.98;3.40;;;;;;;;;;4912216;29;20058;-67
2023/03/14 08:34:06;;;;;;;21.40;3.55;;;;;;;;;;4913164;29;20043;-68
2023/03/14 08:36:33;;;;;;;23.00;3.42;;;;;;;;;;4930686;29;20122;-67
2023/03/14 08:38:59;;;;;;;17.98;3.42;;;;;;;;;;4928941;29;20059;-68
2023/03/14 08:41:25;;;;;;;22.40;3.08;;;;;;;;;;4930141;29;20094;-68
2023/03/14 08:43:51;;;;;;;19.25;3.42;;;;;;;;;;4930083;29;20046;-67
2023/03/14 08:46:17;;;;;;;30.52;5.40;;;;;;;;;;4913777;29;20067;-68
2023/03/14 08:48:43;;;;;;;25.95;3.20;;;;;;;;;;4934748;29;20044;-68
2023/03/14 08:51:12;;;;;;;22.48;3.65;;;;;;;;;;4933981;29;20091;-67
2023/03/14 08:53:39;;;;;;;26.33;3.90;;;;;;;;;;4933231;29;20751;-68
2023/03/14 08:56:06;;;;;;;31.83;4.20;;;;;;;;;;4933881;29;20077;-67
2023/03/14 08:58:32;;;;;;;34.28;4.75;;;;;;;;;;4915785;29;20395;-68
2023/03/14 09:00:58;;;;;;;30.45;5.18;;;;;;;;;;4933682;29;20520;-67
2023/03/14 09:03:25;;;;;;;28.17;4.47;;;;;;;;;;4933447;29;20040;-67
2023/03/14 09:05:52;;;;;;;35.33;4.35;;;;;;;;;;4926600;29;20111;-68
2023/03/14 09:08:18;;;;;;;30.85;4.50;;;;;;;;;;4930451;29;20044;-67
2023/03/14 09:10:44;;;;;;;21.75;3.22;;;;;;;;;;4930801;29;20222;-67
2023/03/14 09:13:10;;;;;;;27.08;4.35;;;;;;;;;;4929439;29;20510;-68
2023/03/14 09:15:37;;;;;;;24.10;3.65;;;;;;;;;;4908924;29;20157;-68
2023/03/14 09:18:03;;;;;;;21.17;3.70;;;;;;;;;;4917907;29;20058;-68
2023/03/14 09:20:29;;;;;;;26.48;3.60;;;;;;;;;;4916481;29;20150;-68
2023/03/14 09:22:55;;;;;;;26.02;4.32;;;;;;;;;;4934713;29;20040;-68
2023/03/14 09:25:21;;;;;;;30.10;4.55;;;;;;;;;;4935333;29;20040;-68
2023/03/14 09:27:48;;;;;;;20.80;3.38;;;;;;;;;;4912912;29;20047;-68
2023/03/14 09:30:14;;;;;;;26.85;4.18;;;;;;;;;;4932366;29;20220;-68
2023/03/14 09:32:40;;;;;;;20.60;3.83;;;;;;;;;;4932131;29;20440;-68
2023/03/14 09:35:06;;;;;;;25.73;3.42;;;;;;;;;;4932186;29;20456;-67
2023/03/14 09:37:32;;;;;;;23.38;3.90;;;;;;;;;;4915565;29;20059;-67
2023/03/14 09:39:59;;;;;;;22.55;3.35;;;;;;;;;;4930315;29;20409;-67
2023/03/14 09:42:27;;;;;;;21.17;3.05;;;;;;;;;;4911577;29;20508;-67
2023/03/14 09:44:55;;;;;;;23.23;4.10;;;;;;;;;;4929486;29;20051;-67
2023/03/14 09:47:22;;;;;;;21.73;3.63;;;;;;;;;;4898373;29;20122;-67
2023/03/14 09:49:48;;;;;;;19.95;3.67;;;;;;;;;;4929724;29;20055;-67
2023/03/14 09:52:17;;;;;;;17.77;3.47;;;;;;;;;;4932183;28;20102;-67
2023/03/14 09:54:45;;;;;;;24.83;3.72;;;;;;;;;;4932229;29;20125;-67
2023/03/14 09:57:14;;;;;;;22.20;3.30;;;;;;;;;;4948954;28;20039;-67
2023/03/14 09:59:42;;;;;;;19.10;4.18;;;;;;;;;;4931873;29;20047;-79
2023/03/14 10:02:18;;;;;;;15.93;3.08;;;;;;;;;;4931528;28;20050;-66
2023/03/14 10:04:45;;;;;;;19.88;2.72;;;;;;;;;;4949569;28;20047;-66
2023/03/14 10:07:15;;;;;;;17.40;3.38;;;;;;;;;;4950281;28;20043;-66
2023/03/14 10:09:43;;;;;;;21.70;3.35;;;;;;;;;;4948779;28;20073;-65
2023/03/14 10:12:09;;;;;;;20.92;2.58;;;;;;;;;;4950366;28;20054;-66
2023/03/14 10:14:37;;;;;;;20.02;4.15;;;;;;;;;;4949834;28;20360;-66
2023/03/14 10:17:07;;;;;;;18.55;3.10;;;;;;;;;;4931450;29;20046;-66
2023/03/14 10:19:35;;;;;;;19.30;4.05;;;;;;;;;;4931041;29;20051;-66
2023/03/14 10:22:02;;;;;;;17.08;3.35;;;;;;;;;;4950369;28;20122;-66
2023/03/14 10:24:31;;;;;;;17.75;2.47;;;;;;;;;;4949544;28;20129;-66
2023/03/14 10:27:02;;;;;;;17.02;2.40;;;;;;;;;;4949587;28;20050;-66
2023/03/14 10:29:28;;;;;;;13.25;2.05;;;;;;;;;;4949970;28;20050;-66
2023/03/14 10:31:54;;;;;;;15.52;2.45;;;;;;;;;;4948998;28;20460;-66
2023/03/14 10:34:24;;;;;;;14.52;2.55;;;;;;;;;;4932058;28;20055;-66
2023/03/14 10:36:54;;;;;;;19.30;3.10;;;;;;;;;;4949168;28;20062;-66
2023/03/14 10:39:41;;;;;;;12.85;2.10;;;;;;;;;;4932081;29;20460;-66
2023/03/14 10:42:13;;;;;;;25.30;3.72;;;;;;;;;;4949289;28;20058;-66
2023/03/14 10:44:39;;;;;;;18.23;3.55;;;;;;;;;;4931079;29;20054;-66
2023/03/14 10:47:06;;;;;;;27.27;4.03;;;;;;;;;;4948688;28;20035;-66
2023/03/14 10:49:33;;;;;;;15.18;2.28;;;;;;;;;;4948729;28;20058;-66
2023/03/14 10:52:15;;;;;;;17.50;2.25;;;;;;;;;;4948329;28;20830;-66
2023/03/14 10:54:44;;;;;;;14.27;2.25;;;;;;;;;;4948539;28;20079;-66
2023/03/14 10:57:11;;;;;;;6.30;1.70;;;;;;;;;;4948146;28;20047;-66
2023/03/14 10:59:40;;;;;;;8.95;1.70;;;;;;;;;;4948007;28;20084;-65
2023/03/14 11:02:07;;;;;;;8.70;1.50;;;;;;;;;;4948785;28;20460;-66
2023/03/14 11:04:39;;;;;;;12.90;1.75;;;;;;;;;;4930954;29;20121;-66
2023/03/14 11:07:10;;;;;;;7.10;2.45;;;;;;;;;;4930117;28;20051;-66
2023/03/14 11:09:49;;;;;;;11.95;2.00;;;;;;;;;;4930106;28;20537;-66
2023/03/14 11:12:31;;;;;;;8.82;2.38;;;;;;;;;;4944430;28;20036;-65
2023/03/14 11:15:02;;;;;;;11.10;2.10;;;;;;;;;;4946476;28;20051;-66
2023/03/14 11:17:34;;;;;;;16.33;2.72;;;;;;;;;;4931814;28;20070;-66
2023/03/14 11:20:17;;;;;;;8.27;1.60;;;;;;;;;;4949860;28;20059;-66
2023/03/14 11:22:48;;;;;;;9.40;2.80;;;;;;;;;;4948434;28;20557;-66
2023/03/14 11:25:23;;;;;;;10.98;1.92;;;;;;;;;;4947021;28;20051;-66
2023/03/14 11:28:00;;;;;;;6.82;1.73;;;;;;;;;;4929756;29;20047;-66
2023/03/14 11:30:26;;;;;;;13.32;2.40;;;;;;;;;;4948625;28;20102;-66
2023/03/14 11:33:05;;;;;;;16.10;2.97;;;;;;;;;;4947236;28;20491;-66
2023/03/14 11:35:35;;;;;;;11.10;1.92;;;;;;;;;;4947134;28;20498;-66
2023/03/14 11:38:14;;;;;;;13.93;2.00;;;;;;;;;;4931474;29;20047;-66
2023/03/14 11:40:41;;;;;;;10.80;1.90;;;;;;;;;;4947642;28;20039;-66
2023/03/14 11:43:09;;;;;;;8.20;1.88;;;;;;;;;;4931709;29;20505;-66
2023/03/14 11:45:36;;;;;;;15.38;2.00;;;;;;;;;;4948411;28;20502;-66
2023/03/14 11:48:20;;;;;;;16.35;2.25;;;;;;;;;;4946838;28;20043;-65
2023/03/14 11:50:48;;;;;;;15.02;2.70;;;;;;;;;;4935799;28;21173;-66
2023/03/14 11:53:17;;;;;;;15.18;2.05;;;;;;;;;;4946908;28;20068;-66
2023/03/14 11:55:43;;;;;;;12.88;2.33;;;;;;;;;;4946428;28;20317;-66
2023/03/14 11:58:23;;;;;;;13.95;2.25;;;;;;;;;;4948053;28;20494;-66
2023/03/14 12:00:51;;;;;;;13.52;2.67;;;;;;;;;;4959828;28;20039;-66
2023/03/14 12:03:22;;;;;;;9.63;2.17;;;;;;;;;;4946100;28;20541;-66
2023/03/14 12:06:10;;;;;;;14.20;2.65;;;;;;;;;;4946040;28;20047;-66
2023/03/14 12:08:39;;;;;;;10.52;1.95;;;;;;;;;;4945210;28;20082;-66
2023/03/14 12:11:05;;;;;;;12.40;2.00;;;;;;;;;;4946385;28;20097;-66
2023/03/14 12:13:34;;;;;;;10.45;1.70;;;;;;;;;;4945054;28;20069;-66
2023/03/14 12:16:01;;;;;;;17.02;2.20;;;;;;;;;;4946098;28;20058;-66
2023/03/14 12:18:30;;;;;;;16.52;2.45;;;;;;;;;;4945389;28;20055;-66
2023/03/14 12:21:01;;;;;;;11.15;2.03;;;;;;;;;;4946364;28;20090;-66
2023/03/14 12:23:28;;;;;;;12.98;2.00;;;;;;;;;;4946684;28;20126;-66
2023/03/14 12:26:12;;;;;;;12.40;2.17;;;;;;;;;;4946804;28;20039;-67
2023/03/14 12:28:39;;;;;;;16.75;2.83;;;;;;;;;;4946431;28;20520;-66
2023/03/14 12:31:32;;;;;;;11.90;2.60;;;;;;;;;;4946746;28;20134;-66
2023/03/14 12:34:04;;;;;;;13.63;2.55;;;;;;;;;;4947724;28;20047;-66
2023/03/14 12:36:48;;;;;;;10.75;2.00;;;;;;;;;;4946232;28;20130;-66
2023/03/14 12:39:14;;;;;;;10.98;1.98;;;;;;;;;;4946464;28;20562;-66
2023/03/14 12:41:45;;;;;;;13.27;1.95;;;;;;;;;;4946850;28;20043;-66
2023/03/14 12:44:29;;;;;;;15.93;2.47;;;;;;;;;;4946091;28;20098;-66
2023/03/14 12:46:57;;;;;;;19.35;2.45;;;;;;;;;;4948496;28;20051;-66
2023/03/14 12:49:29;;;;;;;7.38;1.58;;;;;;;;;;4946099;28;20044;-67
2023/03/14 12:52:00;;;;;;;12.07;2.75;;;;;;;;;;4946456;28;20055;-67
2023/03/14 12:54:26;;;;;;;12.32;2.22;;;;;;;;;;4929238;29;20070;-66
2023/03/14 12:56:59;;;;;;;10.85;2.28;;;;;;;;;;4946818;28;20066;-65
2023/03/14 12:59:30;;;;;;;14.32;2.58;;;;;;;;;;4944643;28;20050;-65
2023/03/14 13:01:59;;;;;;;8.88;2.03;;;;;;;;;;4929751;28;20406;-66
2023/03/14 13:04:28;;;;;;;9.68;2.88;;;;;;;;;;4947559;28;20083;-65
2023/03/14 13:07:03;;;;;;;14.20;1.88;;;;;;;;;;4929914;29;20064;-66
2023/03/14 13:09:29;;;;;;;8.95;1.88;;;;;;;;;;4948196;28;20154;-65
2023/03/14 13:11:57;;;;;;;10.07;2.10;;;;;;;;;;4946495;28;20443;-65
2023/03/14 13:14:23;;;;;;;10.18;2.25;;;;;;;;;;4946160;28;20047;-66
2023/03/14 13:16:50;;;;;;;11.80;2.42;;;;;;;;;;4948489;28;20492;-65
2023/03/14 13:19:22;;;;;;;10.20;1.75;;;;;;;;;;4946993;28;20101;-66
2023/03/14 13:21:48;;;;;;;10.73;2.30;;;;;;;;;;4947106;28;20134;-65
2023/03/14 13:24:23;;;;;;;9.00;2.03;;;;;;;;;;4946715;28;20047;-65
2023/03/14 13:26:49;;;;;;;10.73;2.13;;;;;;;;;;4946939;28;20432;-66
2023/03/14 13:29:18;;;;;;;11.95;2.75;;;;;;;;;;4947130;28;20555;-66
2023/03/14 13:31:45;;;;;;;10.23;1.67;;;;;;;;;;4947185;28;20118;-65
2023/03/14 13:34:11;;;;;;;19.42;2.65;;;;;;;;;;4949866;28;20129;-66
2023/03/14 13:36:38;;;;;;;14.82;1.83;;;;;;;;;;4932757;28;20047;-66
2023/03/14 13:39:07;;;;;;;13.18;2.40;;;;;;;;;;4948050;28;20458;-66
2023/03/14 13:41:33;;;;;;;9.82;2.30;;;;;;;;;;4950234;28;20474;-65
2023/03/14 13:44:03;;;;;;;11.63;1.95;;;;;;;;;;4933405;29;20375;-66
2023/03/14 13:46:29;;;;;;;10.93;2.20;;;;;;;;;;4950256;28;20395;-65
2023/03/14 13:48:58;;;;;;;14.18;2.28;;;;;;;;;;4949112;28;20039;-66
2023/03/14 13:51:27;;;;;;;12.57;1.75;;;;;;;;;;4951053;28;20229;-66
2023/03/14 13:53:54;;;;;;;12.40;2.35;;;;;;;;;;4950013;28;20039;-66
2023/03/14 13:56:21;;;;;;;11.15;2.95;;;;;;;;;;4933215;29;20134;-66
2023/03/14 13:58:48;;;;;;;12.32;2.13;;;;;;;;;;4949881;28;20379;-66
2023/03/14 14:01:17;;;;;;;10.75;2.33;;;;;;;;;;4949301;28;20586;-66
2023/03/14 14:03:45;;;;;;;11.77;2.20;;;;;;;;;;4949879;28;20127;-66
2023/03/14 14:06:27;;;;;;;9.50;2.17;;;;;;;;;;4951070;28;20043;-66
2023/03/14 14:08:54;;;;;;;11.10;1.90;;;;;;;;;;4948927;28;20392;-66
2023/03/14 14:11:36;;;;;;;11.25;2.35;;;;;;;;;;4949828;28;20038;-66
2023/03/14 14:14:02;;;;;;;9.05;2.15;;;;;;;;;;4931662;28;20035;-66
2023/03/14 14:16:29;;;;;;;9.13;1.58;;;;;;;;;;4934532;28;20047;-66
2023/03/14 14:18:56;;;;;;;16.30;2.50;;;;;;;;;;4950586;28;20113;-66
2023/03/14 14:21:23;;;;;;;14.90;2.20;;;;;;;;;;4931864;28;20154;-66
2023/03/14 14:23:49;;;;;;;7.22;1.65;;;;;;;;;;4948411;28;20399;-66
2023/03/14 14:26:17;;;;;;;17.55;2.17;;;;;;;;;;4932157;29;20535;-66
2023/03/14 14:28:43;;;;;;;11.48;2.15;;;;;;;;;;4948507;28;20047;-66
2023/03/14 14:31:15;;;;;;;14.73;2.25;;;;;;;;;;4947662;28;20080;-66
2023/03/14 14:33:42;;;;;;;11.70;2.60;;;;;;;;;;4946333;28;20062;-66